sensor_id;sensor_type;location;lat;lon;timestamp;P1;durP1;ratioP1;P2;durP2;ratioP2
48665;SDS011;34452;50.796;4.994;2022-12-07T00:02:18;22.10;;;12.27;;
48665;SDS011;34452;50.796;4.994;2022-12-07T00:04:44;21.37;;;12.70;;
48665;SDS011;34452;50.796;4.994;2022-12-07T00:07:10;28.77;;;14.10;;
48665;SDS011;34452;50.796;4.994;2022-12-07T00:09:35;20.47;;;12.43;;
48665;SDS011;34452;50.796;4.994;2022-12-07T00:12:01;23.65;;;13.00;;
48665;SDS011;34452;50.796;4.994;2022-12-07T00:14:27;19.50;;;13.43;;
48665;SDS011;34452;50.796;4.994;2022-12-07T00:16:52;20.63;;;13.40;;
48665;SDS011;34452;50.796;4.994;2022-12-07T00:19:18;23.17;;;13.25;;
48665;SDS011;34452;50.796;4.994;2022-12-07T00:21:44;26.38;;;13.00;;
48665;SDS011;34452;50.796;4.994;2022-12-07T00:24:10;24.80;;;12.87;;
48665;SDS011;34452;50.796;4.994;2022-12-07T00:26:38;29.85;;;13.43;;
48665;SDS011;34452;50.796;4.994;2022-12-07T00:29:06;22.55;;;13.43;;
48665;SDS011;34452;50.796;4.994;2022-12-07T00:31:35;22.83;;;13.13;;
48665;SDS011;34452;50.796;4.994;2022-12-07T00:34:04;24.30;;;13.40;;
48665;SDS011;34452;50.796;4.994;2022-12-07T00:36:31;29.83;;;13.27;;
48665;SDS011;34452;50.796;4.994;2022-12-07T00:38:57;24.40;;;13.88;;
48665;SDS011;34452;50.796;4.994;2022-12-07T00:41:24;20.63;;;12.85;;
48665;SDS011;34452;50.796;4.994;2022-12-07T00:43:51;24.35;;;13.05;;
48665;SDS011;34452;50.796;4.994;2022-12-07T00:46:17;23.48;;;13.05;;
48665;SDS011;34452;50.796;4.994;2022-12-07T00:48:44;30.25;;;14.70;;
48665;SDS011;34452;50.796;4.994;2022-12-07T00:53:37;24.92;;;13.25;;
48665;SDS011;34452;50.796;4.994;2022-12-07T00:56:10;29.40;;;13.82;;
48665;SDS011;34452;50.796;4.994;2022-12-07T00:58:37;31.00;;;14.10;;
48665;SDS011;34452;50.796;4.994;2022-12-07T01:01:04;24.10;;;14.50;;
48665;SDS011;34452;50.796;4.994;2022-12-07T01:03:30;26.83;;;14.30;;
48665;SDS011;34452;50.796;4.994;2022-12-07T01:05:56;23.50;;;15.15;;
48665;SDS011;34452;50.796;4.994;2022-12-07T01:08:23;24.15;;;14.57;;
48665;SDS011;34452;50.796;4.994;2022-12-07T01:10:56;22.65;;;13.07;;
48665;SDS011;34452;50.796;4.994;2022-12-07T01:15:55;24.58;;;13.35;;
48665;SDS011;34452;50.796;4.994;2022-12-07T01:18:23;27.40;;;14.43;;
48665;SDS011;34452;50.796;4.994;2022-12-07T01:20:58;29.65;;;15.05;;
48665;SDS011;34452;50.796;4.994;2022-12-07T01:23:25;29.98;;;17.08;;
48665;SDS011;34452;50.796;4.994;2022-12-07T01:25:55;29.33;;;14.68;;
48665;SDS011;34452;50.796;4.994;2022-12-07T01:28:26;25.98;;;14.15;;
48665;SDS011;34452;50.796;4.994;2022-12-07T01:33:29;27.17;;;15.15;;
48665;SDS011;34452;50.796;4.994;2022-12-07T01:38:29;27.27;;;14.43;;
48665;SDS011;34452;50.796;4.994;2022-12-07T01:40:56;30.67;;;15.23;;
48665;SDS011;34452;50.796;4.994;2022-12-07T01:43:23;32.58;;;15.00;;
48665;SDS011;34452;50.796;4.994;2022-12-07T01:45:50;28.08;;;14.95;;
48665;SDS011;34452;50.796;4.994;2022-12-07T01:48:17;22.98;;;14.52;;
48665;SDS011;34452;50.796;4.994;2022-12-07T01:50:46;22.95;;;14.02;;
48665;SDS011;34452;50.796;4.994;2022-12-07T01:53:14;28.85;;;15.10;;
48665;SDS011;34452;50.796;4.994;2022-12-07T01:55:42;28.45;;;14.98;;
48665;SDS011;34452;50.796;4.994;2022-12-07T01:58:10;25.40;;;15.35;;
48665;SDS011;34452;50.796;4.994;2022-12-07T02:00:37;29.75;;;15.90;;
48665;SDS011;34452;50.796;4.994;2022-12-07T02:03:04;22.83;;;14.75;;
48665;SDS011;34452;50.796;4.994;2022-12-07T02:05:37;28.60;;;15.75;;
48665;SDS011;34452;50.796;4.994;2022-12-07T02:08:05;25.08;;;15.00;;
48665;SDS011;34452;50.796;4.994;2022-12-07T02:10:32;28.77;;;16.27;;
48665;SDS011;34452;50.796;4.994;2022-12-07T02:12:59;30.38;;;17.10;;
48665;SDS011;34452;50.796;4.994;2022-12-07T02:21:11;29.13;;;15.30;;
48665;SDS011;34452;50.796;4.994;2022-12-07T02:24:02;24.08;;;14.30;;
48665;SDS011;34452;50.796;4.994;2022-12-07T02:32:01;24.00;;;15.38;;
48665;SDS011;34452;50.796;4.994;2022-12-07T02:34:50;27.77;;;15.35;;
48665;SDS011;34452;50.796;4.994;2022-12-07T02:37:39;26.90;;;15.55;;
48665;SDS011;34452;50.796;4.994;2022-12-07T02:42:37;31.20;;;17.65;;
48665;SDS011;34452;50.796;4.994;2022-12-07T02:45:07;30.42;;;17.80;;
48665;SDS011;34452;50.796;4.994;2022-12-07T02:47:35;24.70;;;16.40;;
48665;SDS011;34452;50.796;4.994;2022-12-07T02:50:03;26.30;;;15.85;;
48665;SDS011;34452;50.796;4.994;2022-12-07T02:52:30;22.60;;;16.38;;
48665;SDS011;34452;50.796;4.994;2022-12-07T02:54:56;37.35;;;18.25;;
48665;SDS011;34452;50.796;4.994;2022-12-07T03:00:05;32.05;;;17.77;;
48665;SDS011;34452;50.796;4.994;2022-12-07T03:10:35;34.67;;;18.65;;
48665;SDS011;34452;50.796;4.994;2022-12-07T03:13:06;32.58;;;18.20;;
48665;SDS011;34452;50.796;4.994;2022-12-07T03:18:08;31.40;;;19.10;;
48665;SDS011;34452;50.796;4.994;2022-12-07T03:20:35;32.63;;;19.98;;
48665;SDS011;34452;50.796;4.994;2022-12-07T03:23:07;33.83;;;20.00;;
48665;SDS011;34452;50.796;4.994;2022-12-07T03:25:35;30.80;;;18.13;;
48665;SDS011;34452;50.796;4.994;2022-12-07T03:28:07;35.75;;;19.75;;
48665;SDS011;34452;50.796;4.994;2022-12-07T03:30:39;39.45;;;20.33;;
48665;SDS011;34452;50.796;4.994;2022-12-07T03:33:12;36.83;;;20.45;;
48665;SDS011;34452;50.796;4.994;2022-12-07T03:35:52;33.35;;;18.52;;
48665;SDS011;34452;50.796;4.994;2022-12-07T03:38:40;35.08;;;19.88;;
48665;SDS011;34452;50.796;4.994;2022-12-07T03:41:12;39.00;;;18.35;;
48665;SDS011;34452;50.796;4.994;2022-12-07T03:43:44;33.53;;;19.85;;
48665;SDS011;34452;50.796;4.994;2022-12-07T03:52:16;30.00;;;17.77;;
48665;SDS011;34452;50.796;4.994;2022-12-07T03:54:41;30.27;;;17.42;;
48665;SDS011;34452;50.796;4.994;2022-12-07T03:57:27;29.63;;;16.63;;
48665;SDS011;34452;50.796;4.994;2022-12-07T03:59:57;27.45;;;17.88;;
48665;SDS011;34452;50.796;4.994;2022-12-07T04:02:23;30.60;;;18.67;;
48665;SDS011;34452;50.796;4.994;2022-12-07T04:04:51;33.30;;;17.27;;
48665;SDS011;34452;50.796;4.994;2022-12-07T04:07:17;30.15;;;17.55;;
48665;SDS011;34452;50.796;4.994;2022-12-07T04:09:44;30.95;;;18.65;;
48665;SDS011;34452;50.796;4.994;2022-12-07T04:12:10;37.30;;;18.17;;
48665;SDS011;34452;50.796;4.994;2022-12-07T04:14:36;36.17;;;18.40;;
48665;SDS011;34452;50.796;4.994;2022-12-07T04:17:01;32.88;;;18.63;;
48665;SDS011;34452;50.796;4.994;2022-12-07T04:19:28;32.85;;;18.50;;
48665;SDS011;34452;50.796;4.994;2022-12-07T04:21:56;32.40;;;18.38;;
48665;SDS011;34452;50.796;4.994;2022-12-07T04:24:22;35.00;;;18.45;;
48665;SDS011;34452;50.796;4.994;2022-12-07T04:26:48;29.15;;;18.15;;
48665;SDS011;34452;50.796;4.994;2022-12-07T04:29:15;27.98;;;17.80;;
48665;SDS011;34452;50.796;4.994;2022-12-07T04:31:41;31.23;;;18.08;;
48665;SDS011;34452;50.796;4.994;2022-12-07T04:34:07;33.25;;;17.85;;
48665;SDS011;34452;50.796;4.994;2022-12-07T04:38:59;28.45;;;17.73;;
48665;SDS011;34452;50.796;4.994;2022-12-07T04:44:10;29.05;;;16.20;;
48665;SDS011;34452;50.796;4.994;2022-12-07T04:46:39;26.90;;;16.70;;
48665;SDS011;34452;50.796;4.994;2022-12-07T04:49:05;35.33;;;16.00;;
48665;SDS011;34452;50.796;4.994;2022-12-07T04:51:31;35.97;;;16.70;;
48665;SDS011;34452;50.796;4.994;2022-12-07T04:53:56;30.83;;;16.10;;
48665;SDS011;34452;50.796;4.994;2022-12-07T04:58:49;22.20;;;14.35;;
48665;SDS011;34452;50.796;4.994;2022-12-07T05:01:16;28.10;;;15.25;;
48665;SDS011;34452;50.796;4.994;2022-12-07T05:06:08;27.27;;;14.95;;
48665;SDS011;34452;50.796;4.994;2022-12-07T05:08:35;28.45;;;16.20;;
48665;SDS011;34452;50.796;4.994;2022-12-07T05:11:01;25.92;;;15.95;;
48665;SDS011;34452;50.796;4.994;2022-12-07T05:13:28;25.83;;;15.27;;
48665;SDS011;34452;50.796;4.994;2022-12-07T05:15:53;27.83;;;16.17;;
48665;SDS011;34452;50.796;4.994;2022-12-07T05:18:19;27.67;;;14.95;;
48665;SDS011;34452;50.796;4.994;2022-12-07T05:20:45;28.33;;;16.63;;
48665;SDS011;34452;50.796;4.994;2022-12-07T05:23:11;25.67;;;14.40;;
48665;SDS011;34452;50.796;4.994;2022-12-07T05:25:37;24.88;;;15.20;;
48665;SDS011;34452;50.796;4.994;2022-12-07T05:30:29;23.40;;;14.77;;
48665;SDS011;34452;50.796;4.994;2022-12-07T05:32:55;25.48;;;14.63;;
48665;SDS011;34452;50.796;4.994;2022-12-07T05:35:21;29.70;;;15.02;;
48665;SDS011;34452;50.796;4.994;2022-12-07T05:37:47;30.13;;;16.10;;
48665;SDS011;34452;50.796;4.994;2022-12-07T05:40:13;24.52;;;14.65;;
48665;SDS011;34452;50.796;4.994;2022-12-07T05:42:39;21.80;;;14.48;;
48665;SDS011;34452;50.796;4.994;2022-12-07T05:45:05;24.27;;;14.18;;
48665;SDS011;34452;50.796;4.994;2022-12-07T05:47:32;27.85;;;15.70;;
48665;SDS011;34452;50.796;4.994;2022-12-07T05:49:58;24.75;;;14.13;;
48665;SDS011;34452;50.796;4.994;2022-12-07T05:52:23;28.77;;;15.95;;
48665;SDS011;34452;50.796;4.994;2022-12-07T05:54:49;30.02;;;17.60;;
48665;SDS011;34452;50.796;4.994;2022-12-07T05:57:15;22.20;;;14.50;;
48665;SDS011;34452;50.796;4.994;2022-12-07T05:59:41;29.35;;;16.30;;
48665;SDS011;34452;50.796;4.994;2022-12-07T06:02:08;26.63;;;15.70;;
48665;SDS011;34452;50.796;4.994;2022-12-07T06:04:36;28.23;;;16.08;;
48665;SDS011;34452;50.796;4.994;2022-12-07T06:07:05;27.63;;;14.82;;
48665;SDS011;34452;50.796;4.994;2022-12-07T06:09:31;33.15;;;16.27;;
48665;SDS011;34452;50.796;4.994;2022-12-07T06:11:58;31.98;;;16.50;;
48665;SDS011;34452;50.796;4.994;2022-12-07T06:14:43;33.33;;;17.30;;
48665;SDS011;34452;50.796;4.994;2022-12-07T06:17:09;34.58;;;17.52;;
48665;SDS011;34452;50.796;4.994;2022-12-07T06:22:01;25.60;;;14.95;;
48665;SDS011;34452;50.796;4.994;2022-12-07T06:24:29;33.05;;;15.48;;
48665;SDS011;34452;50.796;4.994;2022-12-07T06:26:56;22.67;;;15.00;;
48665;SDS011;34452;50.796;4.994;2022-12-07T06:29:21;22.25;;;14.85;;
48665;SDS011;34452;50.796;4.994;2022-12-07T06:31:47;25.63;;;13.30;;
48665;SDS011;34452;50.796;4.994;2022-12-07T06:34:14;27.38;;;14.38;;
48665;SDS011;34452;50.796;4.994;2022-12-07T06:36:41;27.17;;;14.25;;
48665;SDS011;34452;50.796;4.994;2022-12-07T06:39:08;31.92;;;14.98;;
48665;SDS011;34452;50.796;4.994;2022-12-07T06:41:37;26.52;;;13.73;;
48665;SDS011;34452;50.796;4.994;2022-12-07T06:44:03;30.30;;;14.80;;
48665;SDS011;34452;50.796;4.994;2022-12-07T06:46:30;27.00;;;13.32;;
48665;SDS011;34452;50.796;4.994;2022-12-07T06:48:56;21.88;;;14.13;;
48665;SDS011;34452;50.796;4.994;2022-12-07T06:51:21;24.77;;;14.10;;
48665;SDS011;34452;50.796;4.994;2022-12-07T06:53:47;20.83;;;12.70;;
48665;SDS011;34452;50.796;4.994;2022-12-07T06:56:13;26.25;;;13.23;;
48665;SDS011;34452;50.796;4.994;2022-12-07T06:58:39;25.83;;;13.88;;
48665;SDS011;34452;50.796;4.994;2022-12-07T07:03:38;25.35;;;13.35;;
48665;SDS011;34452;50.796;4.994;2022-12-07T07:06:04;22.63;;;12.77;;
48665;SDS011;34452;50.796;4.994;2022-12-07T07:08:31;22.70;;;14.32;;
48665;SDS011;34452;50.796;4.994;2022-12-07T07:10:57;18.55;;;12.13;;
48665;SDS011;34452;50.796;4.994;2022-12-07T07:13:22;20.67;;;12.63;;
48665;SDS011;34452;50.796;4.994;2022-12-07T07:15:48;22.13;;;12.30;;
48665;SDS011;34452;50.796;4.994;2022-12-07T07:18:14;18.50;;;12.20;;
48665;SDS011;34452;50.796;4.994;2022-12-07T07:20:39;19.43;;;13.37;;
48665;SDS011;34452;50.796;4.994;2022-12-07T07:23:05;25.00;;;12.67;;
48665;SDS011;34452;50.796;4.994;2022-12-07T07:25:31;22.13;;;12.57;;
48665;SDS011;34452;50.796;4.994;2022-12-07T07:27:57;18.40;;;12.48;;
48665;SDS011;34452;50.796;4.994;2022-12-07T07:30:23;18.60;;;11.88;;
48665;SDS011;34452;50.796;4.994;2022-12-07T07:32:49;22.85;;;13.15;;
48665;SDS011;34452;50.796;4.994;2022-12-07T07:35:15;25.13;;;13.52;;
48665;SDS011;34452;50.796;4.994;2022-12-07T07:37:41;25.85;;;13.68;;
48665;SDS011;34452;50.796;4.994;2022-12-07T07:40:07;24.60;;;15.35;;
48665;SDS011;34452;50.796;4.994;2022-12-07T07:42:34;21.95;;;13.88;;
48665;SDS011;34452;50.796;4.994;2022-12-07T07:45:00;24.08;;;12.85;;
48665;SDS011;34452;50.796;4.994;2022-12-07T07:47:25;23.55;;;13.82;;
48665;SDS011;34452;50.796;4.994;2022-12-07T07:49:51;29.63;;;12.90;;
48665;SDS011;34452;50.796;4.994;2022-12-07T07:52:17;24.33;;;12.27;;
48665;SDS011;34452;50.796;4.994;2022-12-07T07:54:43;24.07;;;12.87;;
48665;SDS011;34452;50.796;4.994;2022-12-07T07:57:08;23.63;;;13.27;;
48665;SDS011;34452;50.796;4.994;2022-12-07T07:59:34;22.50;;;13.15;;
48665;SDS011;34452;50.796;4.994;2022-12-07T08:02:00;23.20;;;12.93;;
48665;SDS011;34452;50.796;4.994;2022-12-07T08:04:25;22.60;;;13.00;;
48665;SDS011;34452;50.796;4.994;2022-12-07T08:06:51;21.73;;;12.45;;
48665;SDS011;34452;50.796;4.994;2022-12-07T08:09:17;22.67;;;12.57;;
48665;SDS011;34452;50.796;4.994;2022-12-07T08:11:43;21.15;;;12.63;;
48665;SDS011;34452;50.796;4.994;2022-12-07T08:14:10;22.02;;;12.07;;
48665;SDS011;34452;50.796;4.994;2022-12-07T08:16:36;21.33;;;12.50;;
48665;SDS011;34452;50.796;4.994;2022-12-07T08:19:04;22.80;;;11.40;;
48665;SDS011;34452;50.796;4.994;2022-12-07T08:21:30;21.27;;;12.45;;
48665;SDS011;34452;50.796;4.994;2022-12-07T08:23:56;25.52;;;13.05;;
48665;SDS011;34452;50.796;4.994;2022-12-07T08:28:48;24.90;;;12.05;;
48665;SDS011;34452;50.796;4.994;2022-12-07T08:31:15;26.38;;;12.95;;
48665;SDS011;34452;50.796;4.994;2022-12-07T08:33:44;25.48;;;12.20;;
48665;SDS011;34452;50.796;4.994;2022-12-07T08:36:11;17.77;;;11.10;;
48665;SDS011;34452;50.796;4.994;2022-12-07T08:38:38;22.95;;;12.30;;
48665;SDS011;34452;50.796;4.994;2022-12-07T08:41:05;23.98;;;11.80;;
48665;SDS011;34452;50.796;4.994;2022-12-07T08:46:15;21.63;;;12.02;;
48665;SDS011;34452;50.796;4.994;2022-12-07T08:48:46;21.40;;;11.52;;
48665;SDS011;34452;50.796;4.994;2022-12-07T08:51:21;19.33;;;11.40;;
48665;SDS011;34452;50.796;4.994;2022-12-07T08:53:47;17.20;;;10.63;;
48665;SDS011;34452;50.796;4.994;2022-12-07T08:56:14;22.80;;;11.48;;
48665;SDS011;34452;50.796;4.994;2022-12-07T08:58:41;22.73;;;12.90;;
48665;SDS011;34452;50.796;4.994;2022-12-07T09:01:07;21.08;;;12.05;;
48665;SDS011;34452;50.796;4.994;2022-12-07T09:03:33;21.10;;;11.00;;
48665;SDS011;34452;50.796;4.994;2022-12-07T09:05:59;21.95;;;12.07;;
48665;SDS011;34452;50.796;4.994;2022-12-07T09:08:26;18.70;;;11.90;;
48665;SDS011;34452;50.796;4.994;2022-12-07T09:10:58;17.90;;;12.02;;
48665;SDS011;34452;50.796;4.994;2022-12-07T09:13:23;24.67;;;10.15;;
48665;SDS011;34452;50.796;4.994;2022-12-07T09:15:49;16.02;;;10.30;;
48665;SDS011;34452;50.796;4.994;2022-12-07T09:18:15;20.03;;;10.03;;
48665;SDS011;34452;50.796;4.994;2022-12-07T09:20:41;21.20;;;9.70;;
48665;SDS011;34452;50.796;4.994;2022-12-07T09:23:06;12.85;;;8.35;;
48665;SDS011;34452;50.796;4.994;2022-12-07T09:25:33;19.83;;;8.88;;
48665;SDS011;34452;50.796;4.994;2022-12-07T09:27:59;15.48;;;8.00;;
48665;SDS011;34452;50.796;4.994;2022-12-07T09:30:26;20.02;;;9.15;;
48665;SDS011;34452;50.796;4.994;2022-12-07T09:32:53;20.90;;;8.77;;
48665;SDS011;34452;50.796;4.994;2022-12-07T09:35:19;20.92;;;9.32;;
48665;SDS011;34452;50.796;4.994;2022-12-07T09:37:45;22.65;;;9.13;;
48665;SDS011;34452;50.796;4.994;2022-12-07T09:40:11;20.38;;;9.38;;
48665;SDS011;34452;50.796;4.994;2022-12-07T09:42:41;15.60;;;8.23;;
48665;SDS011;34452;50.796;4.994;2022-12-07T09:45:17;17.55;;;8.70;;
48665;SDS011;34452;50.796;4.994;2022-12-07T09:50:13;15.18;;;8.65;;
48665;SDS011;34452;50.796;4.994;2022-12-07T09:52:42;25.40;;;8.73;;
48665;SDS011;34452;50.796;4.994;2022-12-07T09:55:14;15.45;;;8.65;;
48665;SDS011;34452;50.796;4.994;2022-12-07T09:57:44;13.57;;;8.50;;
48665;SDS011;34452;50.796;4.994;2022-12-07T10:00:14;12.57;;;7.28;;
48665;SDS011;34452;50.796;4.994;2022-12-07T10:02:43;22.70;;;8.38;;
48665;SDS011;34452;50.796;4.994;2022-12-07T10:05:13;17.70;;;7.88;;
48665;SDS011;34452;50.796;4.994;2022-12-07T10:07:41;19.30;;;8.27;;
48665;SDS011;34452;50.796;4.994;2022-12-07T10:13:15;15.25;;;7.47;;
48665;SDS011;34452;50.796;4.994;2022-12-07T10:15:53;11.25;;;6.80;;
48665;SDS011;34452;50.796;4.994;2022-12-07T10:21:03;16.52;;;6.70;;
48665;SDS011;34452;50.796;4.994;2022-12-07T10:31:58;10.55;;;5.45;;
48665;SDS011;34452;50.796;4.994;2022-12-07T10:34:31;20.92;;;6.22;;
48665;SDS011;34452;50.796;4.994;2022-12-07T10:44:44;15.00;;;5.50;;
48665;SDS011;34452;50.796;4.994;2022-12-07T10:52:37;11.23;;;5.10;;
48665;SDS011;34452;50.796;4.994;2022-12-07T10:55:56;12.85;;;5.28;;
48665;SDS011;34452;50.796;4.994;2022-12-07T10:58:27;10.38;;;5.35;;
48665;SDS011;34452;50.796;4.994;2022-12-07T11:12:05;8.95;;;4.88;;
48665;SDS011;34452;50.796;4.994;2022-12-07T11:14:49;11.65;;;4.80;;
48665;SDS011;34452;50.796;4.994;2022-12-07T11:18:38;11.75;;;5.18;;
48665;SDS011;34452;50.796;4.994;2022-12-07T11:25:53;7.35;;;4.30;;
48665;SDS011;34452;50.796;4.994;2022-12-07T11:31:36;13.23;;;5.85;;
48665;SDS011;34452;50.796;4.994;2022-12-07T11:34:22;14.98;;;4.43;;
48665;SDS011;34452;50.796;4.994;2022-12-07T11:36:50;11.02;;;3.88;;
48665;SDS011;34452;50.796;4.994;2022-12-07T11:41:52;9.48;;;3.42;;
48665;SDS011;34452;50.796;4.994;2022-12-07T11:44:34;10.93;;;3.42;;
48665;SDS011;34452;50.796;4.994;2022-12-07T11:47:34;9.25;;;3.45;;
48665;SDS011;34452;50.796;4.994;2022-12-07T11:52:36;7.57;;;3.07;;
48665;SDS011;34452;50.796;4.994;2022-12-07T11:58:03;13.23;;;3.67;;
48665;SDS011;34452;50.796;4.994;2022-12-07T12:00:38;13.27;;;3.55;;
48665;SDS011;34452;50.796;4.994;2022-12-07T12:03:12;13.55;;;3.80;;
48665;SDS011;34452;50.796;4.994;2022-12-07T12:05:46;15.20;;;3.95;;
48665;SDS011;34452;50.796;4.994;2022-12-07T12:10:55;10.95;;;4.18;;
48665;SDS011;34452;50.796;4.994;2022-12-07T12:16:32;9.52;;;3.45;;
48665;SDS011;34452;50.796;4.994;2022-12-07T12:19:26;10.15;;;3.67;;
48665;SDS011;34452;50.796;4.994;2022-12-07T12:22:15;12.93;;;4.13;;
48665;SDS011;34452;50.796;4.994;2022-12-07T12:24:44;13.90;;;4.10;;
48665;SDS011;34452;50.796;4.994;2022-12-07T12:27:32;11.75;;;4.68;;
48665;SDS011;34452;50.796;4.994;2022-12-07T12:30:01;9.02;;;4.32;;
48665;SDS011;34452;50.796;4.994;2022-12-07T12:32:34;18.05;;;5.05;;
48665;SDS011;34452;50.796;4.994;2022-12-07T12:40:52;14.43;;;4.07;;
48665;SDS011;34452;50.796;4.994;2022-12-07T12:46:35;11.90;;;3.95;;
48665;SDS011;34452;50.796;4.994;2022-12-07T12:51:47;12.25;;;4.05;;
48665;SDS011;34452;50.796;4.994;2022-12-07T13:02:16;14.35;;;3.90;;
48665;SDS011;34452;50.796;4.994;2022-12-07T13:04:51;13.65;;;4.70;;
48665;SDS011;34452;50.796;4.994;2022-12-07T13:10:34;8.18;;;3.63;;
48665;SDS011;34452;50.796;4.994;2022-12-07T13:21:02;12.68;;;3.50;;
48665;SDS011;34452;50.796;4.994;2022-12-07T13:26:14;13.13;;;4.03;;
48665;SDS011;34452;50.796;4.994;2022-12-07T13:31:12;9.30;;;4.37;;
48665;SDS011;34452;50.796;4.994;2022-12-07T13:33:45;5.95;;;3.38;;
48665;SDS011;34452;50.796;4.994;2022-12-07T13:36:14;10.75;;;3.33;;
48665;SDS011;34452;50.796;4.994;2022-12-07T13:38:51;11.73;;;3.83;;
48665;SDS011;34452;50.796;4.994;2022-12-07T13:41:22;15.15;;;3.90;;
48665;SDS011;34452;50.796;4.994;2022-12-07T13:43:51;7.57;;;3.03;;
48665;SDS011;34452;50.796;4.994;2022-12-07T13:49:15;8.55;;;3.30;;
48665;SDS011;34452;50.796;4.994;2022-12-07T13:51:53;10.18;;;3.08;;
48665;SDS011;34452;50.796;4.994;2022-12-07T13:54:20;12.38;;;3.47;;
48665;SDS011;34452;50.796;4.994;2022-12-07T13:56:48;12.90;;;3.53;;
48665;SDS011;34452;50.796;4.994;2022-12-07T13:59:18;9.82;;;3.30;;
48665;SDS011;34452;50.796;4.994;2022-12-07T14:01:49;16.27;;;4.00;;
48665;SDS011;34452;50.796;4.994;2022-12-07T14:04:37;8.63;;;2.90;;
48665;SDS011;34452;50.796;4.994;2022-12-07T14:09:55;14.25;;;3.78;;
48665;SDS011;34452;50.796;4.994;2022-12-07T14:12:26;14.27;;;4.50;;
48665;SDS011;34452;50.796;4.994;2022-12-07T14:14:53;10.85;;;3.53;;
48665;SDS011;34452;50.796;4.994;2022-12-07T14:17:21;7.30;;;2.90;;
48665;SDS011;34452;50.796;4.994;2022-12-07T14:24:58;13.30;;;3.97;;
48665;SDS011;34452;50.796;4.994;2022-12-07T14:27:24;9.73;;;2.92;;
48665;SDS011;34452;50.796;4.994;2022-12-07T14:29:55;10.63;;;3.08;;
48665;SDS011;34452;50.796;4.994;2022-12-07T14:32:25;9.65;;;3.22;;
48665;SDS011;34452;50.796;4.994;2022-12-07T14:34:55;11.93;;;3.97;;
48665;SDS011;34452;50.796;4.994;2022-12-07T14:37:25;10.75;;;3.60;;
48665;SDS011;34452;50.796;4.994;2022-12-07T14:39:52;10.05;;;2.85;;
48665;SDS011;34452;50.796;4.994;2022-12-07T14:42:18;4.47;;;1.30;;
48665;SDS011;34452;50.796;4.994;2022-12-07T14:44:45;3.42;;;1.48;;
48665;SDS011;34452;50.796;4.994;2022-12-07T14:47:10;7.47;;;1.20;;
48665;SDS011;34452;50.796;4.994;2022-12-07T14:49:36;7.35;;;2.03;;
48665;SDS011;34452;50.796;4.994;2022-12-07T14:52:02;5.57;;;2.22;;
48665;SDS011;34452;50.796;4.994;2022-12-07T14:54:31;2.22;;;1.13;;
48665;SDS011;34452;50.796;4.994;2022-12-07T14:56:58;4.15;;;1.67;;
48665;SDS011;34452;50.796;4.994;2022-12-07T14:59:23;8.45;;;1.73;;
48665;SDS011;34452;50.796;4.994;2022-12-07T15:01:49;2.97;;;1.60;;
48665;SDS011;34452;50.796;4.994;2022-12-07T15:04:15;4.40;;;1.70;;
48665;SDS011;34452;50.796;4.994;2022-12-07T15:06:41;3.25;;;1.50;;
48665;SDS011;34452;50.796;4.994;2022-12-07T15:09:10;4.32;;;1.98;;
48665;SDS011;34452;50.796;4.994;2022-12-07T15:11:36;2.00;;;1.55;;
48665;SDS011;34452;50.796;4.994;2022-12-07T15:14:02;3.15;;;2.05;;
48665;SDS011;34452;50.796;4.994;2022-12-07T15:16:33;8.65;;;2.35;;
48665;SDS011;34452;50.796;4.994;2022-12-07T15:18:59;5.32;;;2.58;;
48665;SDS011;34452;50.796;4.994;2022-12-07T15:21:25;6.60;;;2.63;;
48665;SDS011;34452;50.796;4.994;2022-12-07T15:23:51;7.53;;;2.83;;
48665;SDS011;34452;50.796;4.994;2022-12-07T15:26:18;8.00;;;3.35;;
48665;SDS011;34452;50.796;4.994;2022-12-07T15:28:44;8.52;;;3.40;;
48665;SDS011;34452;50.796;4.994;2022-12-07T15:31:11;11.40;;;4.45;;
48665;SDS011;34452;50.796;4.994;2022-12-07T15:33:40;11.85;;;3.15;;
48665;SDS011;34452;50.796;4.994;2022-12-07T15:36:06;4.65;;;2.58;;
48665;SDS011;34452;50.796;4.994;2022-12-07T15:38:32;10.98;;;3.40;;
48665;SDS011;34452;50.796;4.994;2022-12-07T15:40:58;8.17;;;3.20;;
48665;SDS011;34452;50.796;4.994;2022-12-07T15:43:24;17.83;;;4.10;;
48665;SDS011;34452;50.796;4.994;2022-12-07T15:46:08;14.15;;;3.97;;
48665;SDS011;34452;50.796;4.994;2022-12-07T15:48:34;17.58;;;6.80;;
48665;SDS011;34452;50.796;4.994;2022-12-07T15:51:03;7.77;;;4.40;;
48665;SDS011;34452;50.796;4.994;2022-12-07T15:53:30;9.90;;;5.93;;
48665;SDS011;34452;50.796;4.994;2022-12-07T15:55:56;13.60;;;6.00;;
48665;SDS011;34452;50.796;4.994;2022-12-07T15:58:22;16.38;;;6.20;;
48665;SDS011;34452;50.796;4.994;2022-12-07T16:00:48;9.32;;;5.38;;
48665;SDS011;34452;50.796;4.994;2022-12-07T16:03:14;12.50;;;5.00;;
48665;SDS011;34452;50.796;4.994;2022-12-07T16:05:40;8.18;;;4.25;;
48665;SDS011;34452;50.796;4.994;2022-12-07T16:08:05;10.40;;;3.57;;
48665;SDS011;34452;50.796;4.994;2022-12-07T16:10:31;9.55;;;3.05;;
48665;SDS011;34452;50.796;4.994;2022-12-07T16:12:57;11.80;;;3.78;;
48665;SDS011;34452;50.796;4.994;2022-12-07T16:15:23;10.25;;;3.60;;
48665;SDS011;34452;50.796;4.994;2022-12-07T16:17:50;7.90;;;3.13;;
48665;SDS011;34452;50.796;4.994;2022-12-07T16:20:16;6.85;;;3.20;;
48665;SDS011;34452;50.796;4.994;2022-12-07T16:22:42;6.85;;;2.72;;
48665;SDS011;34452;50.796;4.994;2022-12-07T16:25:08;4.20;;;2.70;;
48665;SDS011;34452;50.796;4.994;2022-12-07T16:27:34;6.00;;;3.30;;
48665;SDS011;34452;50.796;4.994;2022-12-07T16:30:00;5.75;;;2.90;;
48665;SDS011;34452;50.796;4.994;2022-12-07T16:32:26;9.83;;;3.10;;
48665;SDS011;34452;50.796;4.994;2022-12-07T16:34:51;6.70;;;3.30;;
48665;SDS011;34452;50.796;4.994;2022-12-07T16:37:17;7.82;;;3.60;;
48665;SDS011;34452;50.796;4.994;2022-12-07T16:39:43;8.40;;;3.70;;
48665;SDS011;34452;50.796;4.994;2022-12-07T16:42:09;6.90;;;4.10;;
48665;SDS011;34452;50.796;4.994;2022-12-07T16:44:35;13.32;;;4.20;;
48665;SDS011;34452;50.796;4.994;2022-12-07T16:47:01;9.07;;;4.63;;
48665;SDS011;34452;50.796;4.994;2022-12-07T16:49:26;7.03;;;4.15;;
48665;SDS011;34452;50.796;4.994;2022-12-07T16:51:52;7.00;;;4.60;;
48665;SDS011;34452;50.796;4.994;2022-12-07T16:54:18;5.82;;;4.50;;
48665;SDS011;34452;50.796;4.994;2022-12-07T16:56:44;8.87;;;4.70;;
48665;SDS011;34452;50.796;4.994;2022-12-07T16:59:10;9.07;;;4.65;;
48665;SDS011;34452;50.796;4.994;2022-12-07T17:01:35;10.67;;;5.33;;
48665;SDS011;34452;50.796;4.994;2022-12-07T17:04:02;9.00;;;4.78;;
48665;SDS011;34452;50.796;4.994;2022-12-07T17:06:29;21.77;;;6.40;;
48665;SDS011;34452;50.796;4.994;2022-12-07T17:08:55;6.03;;;3.90;;
48665;SDS011;34452;50.796;4.994;2022-12-07T17:11:23;10.05;;;4.25;;
48665;SDS011;34452;50.796;4.994;2022-12-07T17:13:54;9.43;;;4.60;;
48665;SDS011;34452;50.796;4.994;2022-12-07T17:16:38;12.13;;;5.00;;
48665;SDS011;34452;50.796;4.994;2022-12-07T17:19:07;11.60;;;6.25;;
48665;SDS011;34452;50.796;4.994;2022-12-07T17:21:35;15.75;;;7.20;;
48665;SDS011;34452;50.796;4.994;2022-12-07T17:24:01;17.45;;;7.40;;
48665;SDS011;34452;50.796;4.994;2022-12-07T17:26:29;13.77;;;6.97;;
48665;SDS011;34452;50.796;4.994;2022-12-07T17:28:55;11.30;;;6.72;;
48665;SDS011;34452;50.796;4.994;2022-12-07T17:31:22;12.20;;;6.88;;
48665;SDS011;34452;50.796;4.994;2022-12-07T17:36:15;13.10;;;7.60;;